Weather at Sibu Airport

Public forecast

Using degrees Celsius for public forecast. Weather courtesy of forecast.io.

Current aviation weather report (METAR) for Sibu Airport

Retrieved 2021/05/11 00:00 UTC (59 minutes ago):

WBGS 110000Z 13004KT 090V170 9999 FEW010 SCT018 26/25 Q1009

Aviation forecast (TAF) for Sibu Airport

Retrieved 2021-05-11 00:00 UTC (59 minutes ago):

TAF WBGS 102300Z 1100/1200 VRB03KT 9999 SCT018 TEMPO 1107/1111 35005KT 4000 TSRA FEW015CB